KSMP

Stampede Pass Airport

Washington, USA
METAR KSMP 182256Z AUTO 26007KT 240V310 10SM OVC033 22/13 A3024 RMK AO2 SLP221 T02170128
Observed Flight Rules
Aug-18 @ 22:56 UTC (50 minutes ago) Visual Flight Rules
Wind Visibility Clouds
260° at 7 knots 10 miles
  • Overcast at 3,300' AGL
Temperatures Readings
Current 22°C / 72°F
Dewpoint 13°C / 55°F
Humidity 57%
Altimeter 30.24" Hg
Pressure 1022.1 hPa
Elevation 1208
METAR KSMP 182256Z AUTO 26007KT 240V310 10SM OVC033 22/13 A3024 RMK AO2 SLP221 T02170128
Observed Flight Rules
Aug-18 @ 22:56 UTC
(50 minutes ago)
VFR
Wind Visibility
260° at 7 knots 10 miles
Clouds
  • Overcast at 3,300' AGL
Temperature Dewpoint
22°C / 72°F 13°C / 55°F
Humidity Altimeter Pressure
57% 30.24" Hg 1022.1 hPa